Rumula, Australia
Current Conditions -  °F | °C
As of 9:00 AM on Thursday 23 Oct 2014 (Local Time) from YBCS Reporting Station
Few Clouds Few Clouds  
Wind Chill: 81°   Ceiling: Unl
Heat Index: 81°   Visibility: 6mi
Dew Point: 59°   Wind: 18mph
Humidity: 48%   Direction: 150°SSE
Pressure: 30.06"   Gusts: NA
Location:  16.55°S, 145.35°E
Report Text: YBCS 222300Z 15016KT 9999 FEW032 27/15 Q1018 NOSIG
Loading
Personal Weather Stations






























Interactive Weather Map
Tropical Storm Tracking
New forecast layout! Learn more

10-Day Weather Forecast

Advertisements
Track Severe Weather on mobile